< < Back
Terminal Aerodrome Forecast


Current Version              Previous Versions:   1  2  3  4  5  6  7  8  9  

Terminal Aerodrome Forecast

349
FTUS44 KMRX 161725
TAFTYS
TAF
KTYS 161725Z 1618/1718 28007KT P6SM SCT030 BKN100
     FM170100 01006KT P6SM SCT030
     FM170800 02003KT 5SM BR BKN015
      TEMPO 1709/1713 3SM BR BKN010
     FM171300 03004KT P6SM SCT015
     FM171600 VRB03KT P6SM SKC=



Latest METAR

365
SAUS80 KWBC 161900 RRA
MTRTYS
METAR KTYS 161853Z 29007KT 10SM SCT030 BKN085 27/18 A3004 RMK AO2 SLP162
T02670183


USA.gov is the U.S. government's official web portal to all federal, state and local government web resources and services.